Time;durP1;ratioP1;P1;durP2;ratioP2;P2;SDS_P1;SDS_P2;PMS_P1;PMS_P2;Temp;Humidity;BMP_temperature;BMP_pressure;BME280_temperature;BME280_humidity;BME280_pressure;Samples;Min_cycle;Max_cycle;Signal;HPM_P1;HPM_P2
2021/11/27 00:00:42;;;;;;;22.42;13.50;;;;;;;1.76;100.00;98695.00;4888744;29;20039;-75
2021/11/27 00:03:08;;;;;;;24.13;13.75;;;;;;;1.80;100.00;98698.13;4887639;29;20407;-75
2021/11/27 00:05:37;;;;;;;22.90;13.50;;;;;;;1.79;100.00;98694.75;4876311;29;20511;-75
2021/11/27 00:08:05;;;;;;;24.50;13.80;;;;;;;1.75;100.00;98686.44;4893946;29;20672;-75
2021/11/27 00:10:31;;;;;;;18.15;12.40;;;;;;;1.85;100.00;98689.00;4891893;29;20067;-74
2021/11/27 00:12:58;;;;;;;22.70;13.45;;;;;;;1.89;100.00;98686.94;4875739;29;20048;-74
2021/11/27 00:15:26;;;;;;;23.38;14.05;;;;;;;1.88;100.00;98685.31;4857100;29;20210;-74
2021/11/27 00:17:52;;;;;;;20.98;13.38;;;;;;;1.83;100.00;98683.16;4891852;29;20051;-74
2021/11/27 00:20:23;;;;;;;27.02;14.07;;;;;;;1.86;100.00;98682.84;4874303;29;20044;-75
2021/11/27 00:22:51;;;;;;;21.88;12.90;;;;;;;1.94;100.00;98687.31;4875437;29;20163;-74
2021/11/27 00:25:17;;;;;;;23.13;14.10;;;;;;;1.94;100.00;98682.97;4890245;29;20118;-74
2021/11/27 00:27:43;;;;;;;24.33;13.88;;;;;;;1.93;100.00;98670.19;4877252;29;20036;-74
2021/11/27 00:30:13;;;;;;;25.33;13.95;;;;;;;1.91;100.00;98683.25;4892046;29;20037;-75
2021/11/27 00:32:39;;;;;;;22.45;14.45;;;;;;;1.81;100.00;98673.88;4889284;29;20407;-74
2021/11/27 00:35:05;;;;;;;23.35;14.57;;;;;;;1.85;100.00;98670.09;4875275;29;20055;-75
2021/11/27 00:37:32;;;;;;;26.52;14.82;;;;;;;1.84;100.00;98677.00;4876783;29;20032;-74
2021/11/27 00:39:58;;;;;;;22.88;13.40;;;;;;;1.95;100.00;98669.06;4892441;29;20041;-75
2021/11/27 00:42:24;;;;;;;26.48;14.57;;;;;;;1.94;100.00;98669.22;4875657;29;20181;-75
2021/11/27 00:44:49;;;;;;;23.13;13.68;;;;;;;1.97;100.00;98666.34;4862061;29;20128;-74
2021/11/27 00:47:15;;;;;;;26.15;14.93;;;;;;;1.85;100.00;98664.91;4860627;29;20729;-75
2021/11/27 00:49:41;;;;;;;25.45;14.50;;;;;;;1.87;100.00;98668.97;4878090;29;20499;-75
2021/11/27 00:52:07;;;;;;;25.52;14.45;;;;;;;1.91;100.00;98662.56;4878226;29;20033;-75
2021/11/27 00:54:33;;;;;;;27.67;15.55;;;;;;;1.92;100.00;98664.22;4864421;29;20033;-75
2021/11/27 00:56:59;;;;;;;24.15;14.20;;;;;;;1.82;100.00;98647.91;4883924;29;20062;-75
2021/11/27 00:59:25;;;;;;;24.02;14.05;;;;;;;1.85;100.00;98657.16;4866971;29;20655;-75
2021/11/27 01:01:52;;;;;;;27.77;14.75;;;;;;;1.85;100.00;98654.59;4876809;29;20617;-74
2021/11/27 01:04:18;;;;;;;28.38;13.98;;;;;;;1.88;100.00;98655.09;4889903;29;20024;-75
2021/11/27 01:06:44;;;;;;;21.77;13.55;;;;;;;1.90;100.00;98658.38;4878271;29;20055;-75
2021/11/27 01:09:13;;;;;;;21.38;13.43;;;;;;;1.91;100.00;98651.41;4908565;29;20029;-75
2021/11/27 01:11:46;;;;;;;23.50;13.73;;;;;;;1.91;100.00;98656.59;4890042;29;20066;-75
2021/11/27 01:14:19;;;;;;;24.10;12.95;;;;;;;1.93;100.00;98646.91;4899655;29;20415;-75
2021/11/27 01:16:48;;;;;;;22.63;13.88;;;;;;;2.00;100.00;98654.91;4887280;29;20055;-75
2021/11/27 01:19:15;;;;;;;21.65;13.68;;;;;;;2.04;100.00;98651.91;4890153;29;20496;-74
2021/11/27 01:21:44;;;;;;;24.67;14.30;;;;;;;1.98;100.00;98644.72;4891837;29;20032;-75
2021/11/27 01:24:12;;;;;;;21.25;13.18;;;;;;;2.01;100.00;98647.00;4891417;29;20039;-75
2021/11/27 01:26:39;;;;;;;24.00;12.85;;;;;;;1.91;100.00;98643.66;4875502;29;20052;-75
2021/11/27 01:29:06;;;;;;;25.63;14.00;;;;;;;1.99;100.00;98645.53;4874763;29;20522;-75
2021/11/27 01:31:33;;;;;;;25.65;14.35;;;;;;;1.97;100.00;98650.03;4890961;29;20044;-75
2021/11/27 01:34:00;;;;;;;23.35;13.45;;;;;;;1.98;100.00;98649.06;4885413;29;20081;-74
2021/11/27 01:36:26;;;;;;;24.40;13.95;;;;;;;2.05;100.00;98650.94;4890686;29;20456;-75
2021/11/27 01:38:52;;;;;;;24.90;13.57;;;;;;;1.96;100.00;98646.66;4875587;29;20045;-75
2021/11/27 01:41:18;;;;;;;25.00;14.32;;;;;;;1.90;100.00;98648.03;4874556;29;20159;-75
2021/11/27 01:43:46;;;;;;;23.17;13.55;;;;;;;1.94;100.00;98653.69;4858251;29;20049;-75
2021/11/27 01:46:13;;;;;;;25.45;13.82;;;;;;;1.91;100.00;98647.06;4874211;29;20123;-75
2021/11/27 01:48:39;;;;;;;23.92;13.77;;;;;;;1.97;100.00;98650.84;4870407;29;20031;-75
2021/11/27 01:51:09;;;;;;;27.38;14.77;;;;;;;1.93;100.00;98639.97;4894286;29;20037;-74
2021/11/27 01:53:37;;;;;;;26.23;14.13;;;;;;;1.98;100.00;98644.72;4878157;29;20032;-74
2021/11/27 01:56:06;;;;;;;27.00;13.50;;;;;;;2.03;100.00;98646.88;4894649;29;20044;-75
2021/11/27 01:58:32;;;;;;;23.30;13.90;;;;;;;2.00;100.00;98655.75;4873492;29;20459;-75
2021/11/27 02:01:05;;;;;;;24.08;13.70;;;;;;;2.11;100.00;98657.31;4885211;29;20032;-75
2021/11/27 02:03:31;;;;;;;;;;;;;;;2.00;100.00;98653.16;4898842;29;20459;-75
2021/11/27 02:06:12;;;;;;;25.42;15.55;;;;;;;2.00;100.00;98657.50;4893909;29;19919;-75
2021/11/27 02:08:40;;;;;;;23.85;15.57;;;;;;;1.82;100.00;98637.56;4888115;29;20028;-74
2021/11/27 02:11:07;;;;;;;26.30;14.73;;;;;;;2.01;100.00;98656.53;4872694;29;20096;-74
2021/11/27 02:13:35;;;;;;;27.67;15.32;;;;;;;1.99;100.00;98653.28;4893327;29;20507;-76
2021/11/27 02:16:03;;;;;;;27.20;14.85;;;;;;;1.92;100.00;98650.44;4864126;29;20065;-75
2021/11/27 02:18:28;;;;;;;24.92;14.05;;;;;;;1.92;100.00;98647.88;4875305;29;20053;-75
2021/11/27 02:21:09;;;;;;;27.02;14.55;;;;;;;1.92;100.00;98655.63;4884265;29;20621;-75
2021/11/27 02:23:36;;;;;;;25.88;14.95;;;;;;;1.88;100.00;98655.09;4862447;29;20051;-75
2021/11/27 02:26:06;;;;;;;28.10;15.82;;;;;;;1.95;100.00;98658.72;4869499;29;20043;-75
2021/11/27 02:28:44;;;;;;;25.52;14.63;;;;;;;1.90;100.00;98658.38;4881618;29;20033;-75
2021/11/27 02:31:10;;;;;;;27.38;15.07;;;;;;;1.89;100.00;98655.91;4892629;29;20080;-75
2021/11/27 02:33:36;;;;;;;24.20;15.48;;;;;;;1.87;100.00;98645.72;4893087;29;20082;-75
2021/11/27 02:36:03;;;;;;;27.00;15.75;;;;;;;1.90;100.00;98647.19;4877666;29;20048;-75
2021/11/27 02:38:29;;;;;;;30.05;15.98;;;;;;;1.94;100.00;98648.53;4890964;29;20043;-76
2021/11/27 02:40:55;;;;;;;25.77;15.75;;;;;;;1.91;100.00;98644.47;4878210;29;20049;-76
2021/11/27 02:43:22;;;;;;;27.90;15.07;;;;;;;1.98;100.00;98649.06;4890983;29;20041;-76
2021/11/27 02:45:47;;;;;;;25.40;14.95;;;;;;;1.93;100.00;98645.13;4892286;29;20033;-75
2021/11/27 02:48:13;;;;;;;27.48;14.88;;;;;;;1.97;100.00;98653.44;4891921;29;20033;-75
2021/11/27 02:50:39;;;;;;;25.42;15.07;;;;;;;1.91;100.00;98641.88;4892838;29;20048;-75
2021/11/27 02:53:05;;;;;;;26.00;14.93;;;;;;;1.92;100.00;98648.69;4885124;29;20044;-75
2021/11/27 02:55:31;;;;;;;27.60;15.35;;;;;;;1.89;100.00;98637.81;4879486;29;20151;-75
2021/11/27 02:57:57;;;;;;;26.10;15.48;;;;;;;1.87;100.00;98642.31;4870211;29;20681;-75
2021/11/27 03:00:24;;;;;;;32.55;16.70;;;;;;;1.92;100.00;98640.94;4890644;29;20041;-74
2021/11/27 03:02:51;;;;;;;28.70;15.95;;;;;;;1.91;100.00;98638.50;4877470;29;20051;-75
2021/11/27 03:05:17;;;;;;;28.15;16.25;;;;;;;1.91;100.00;98638.50;4873837;29;20040;-75
2021/11/27 03:07:43;;;;;;;30.30;16.17;;;;;;;1.88;100.00;98629.22;4891949;29;20044;-75
2021/11/27 03:10:12;;;;;;;31.80;16.35;;;;;;;1.89;100.00;98630.88;4889114;29;20028;-75
2021/11/27 03:12:39;;;;;;;38.38;17.02;;;;;;;1.89;100.00;98628.28;4877097;29;20039;-75
2021/11/27 03:15:09;;;;;;;28.40;16.05;;;;;;;1.89;100.00;98628.28;4881357;29;20040;-75
2021/11/27 03:17:35;;;;;;;29.55;16.27;;;;;;;1.93;100.00;98631.41;4877075;29;20040;-75
2021/11/27 03:20:00;;;;;;;29.25;17.08;;;;;;;1.92;100.00;98634.94;4891291;29;20048;-75
2021/11/27 03:22:27;;;;;;;33.00;16.17;;;;;;;1.87;100.00;98637.16;4891894;29;20036;-75
2021/11/27 03:24:53;;;;;;;29.23;16.45;;;;;;;1.86;100.00;98638.09;4892183;29;20037;-75
2021/11/27 03:27:19;;;;;;;29.90;17.20;;;;;;;1.88;100.00;98643.94;4890783;29;20834;-75
2021/11/27 03:29:45;;;;;;;29.00;17.25;;;;;;;1.88;100.00;98638.75;4866369;29;20602;-74
2021/11/27 03:32:14;;;;;;;30.23;16.70;;;;;;;1.90;100.00;98648.03;4899244;29;20571;-76
2021/11/27 03:34:53;;;;;;;28.15;17.23;;;;;;;1.86;100.00;98645.84;4875510;29;20051;-75
2021/11/27 03:37:21;;;;;;;31.45;19.05;;;;;;;1.88;100.00;98652.50;4876407;29;20032;-75
2021/11/27 03:39:48;;;;;;;32.80;17.65;;;;;;;1.90;100.00;98650.63;4865793;29;20400;-75
2021/11/27 03:42:16;;;;;;;32.05;17.83;;;;;;;1.94;100.00;98657.13;4890828;29;20526;-75
2021/11/27 03:44:44;;;;;;;30.27;17.83;;;;;;;1.87;100.00;98645.72;4892244;29;20036;-75
2021/11/27 03:47:10;;;;;;;35.42;17.92;;;;;;;1.83;100.00;98654.72;4890836;29;20068;-75
2021/11/27 03:49:37;;;;;;;36.92;19.17;;;;;;;1.78;100.00;98638.00;4889982;29;20036;-75
2021/11/27 03:52:03;;;;;;;30.83;18.35;;;;;;;1.86;100.00;98638.09;4891995;29;20043;-75
2021/11/27 03:54:35;;;;;;;34.80;18.77;;;;;;;1.93;100.00;98649.50;4881698;29;21879;-75
2021/11/27 03:57:02;;;;;;;30.80;17.17;;;;;;;1.80;100.00;98641.25;4891873;29;20043;-75
2021/11/27 03:59:28;;;;;;;31.85;17.80;;;;;;;1.85;100.00;98647.63;4888920;29;20120;-75
2021/11/27 04:01:54;;;;;;;41.83;19.98;;;;;;;1.79;100.00;98645.63;4893143;29;20101;-76
2021/11/27 04:04:21;;;;;;;32.70;18.65;;;;;;;1.80;100.00;98642.06;4877039;29;20044;-75
2021/11/27 04:06:47;;;;;;;35.28;18.52;;;;;;;1.81;100.00;98653.22;4876414;29;20407;-75
2021/11/27 04:09:14;;;;;;;37.65;20.40;;;;;;;1.79;100.00;98652.53;4889495;29;20120;-74
2021/11/27 04:11:40;;;;;;;35.13;19.95;;;;;;;1.80;100.00;98654.19;4891638;29;20032;-75
2021/11/27 04:14:14;;;;;;;37.67;20.42;;;;;;;1.78;100.00;98656.91;4903263;29;20040;-75
2021/11/27 04:16:51;;;;;;;37.10;20.75;;;;;;;1.80;100.00;98661.94;4890987;29;20659;-74
2021/11/27 04:19:17;;;;;;;34.85;19.50;;;;;;;1.75;100.00;98652.00;4890370;29;20048;-75
2021/11/27 04:21:43;;;;;;;37.58;19.60;;;;;;;1.68;100.00;98654.34;4888930;29;20055;-76
2021/11/27 04:24:08;;;;;;;35.35;19.67;;;;;;;1.78;100.00;98656.09;4888075;29;20506;-76
2021/11/27 04:26:35;;;;;;;32.95;18.33;;;;;;;1.67;100.00;98652.72;4891383;29;20430;-75
2021/11/27 04:29:02;;;;;;;41.38;21.67;;;;;;;1.64;100.00;98657.34;4876247;29;20064;-75
2021/11/27 04:31:28;;;;;;;38.75;21.33;;;;;;;1.61;100.00;98655.88;4874246;29;20041;-75
2021/11/27 04:33:54;;;;;;;42.53;20.92;;;;;;;1.62;100.00;98657.50;4875367;29;20832;-75
2021/11/27 04:36:21;;;;;;;40.28;21.63;;;;;;;1.67;100.00;98667.41;4874505;29;20041;-75
2021/11/27 04:38:48;;;;;;;41.47;20.45;;;;;;;1.63;100.00;98663.47;4891815;29;20037;-75
2021/11/27 04:41:15;;;;;;;36.67;19.95;;;;;;;1.68;100.00;98661.31;4890138;29;20044;-74
2021/11/27 04:43:41;;;;;;;39.83;20.52;;;;;;;1.61;100.00;98665.41;4891000;29;20785;-75
2021/11/27 04:46:06;;;;;;;35.72;20.30;;;;;;;1.60;100.00;98666.34;4890232;29;20115;-75
2021/11/27 04:48:32;;;;;;;38.05;22.42;;;;;;;1.54;100.00;98662.53;4887759;29;20093;-74
2021/11/27 04:50:59;;;;;;;38.75;21.83;;;;;;;1.58;100.00;98669.06;4894128;29;20091;-75
2021/11/27 04:53:26;;;;;;;39.50;21.85;;;;;;;1.56;100.00;98670.97;4878954;29;20166;-75
2021/11/27 04:55:52;;;;;;;43.60;21.38;;;;;;;1.52;100.00;98667.03;4874284;29;20517;-75
2021/11/27 04:58:18;;;;;;;41.97;22.38;;;;;;;1.53;100.00;98676.44;4893366;29;20045;-75
2021/11/27 05:00:48;;;;;;;39.75;20.95;;;;;;;1.49;100.00;98675.91;4894262;29;20115;-76
2021/11/27 05:03:19;;;;;;;39.08;21.65;;;;;;;1.55;100.00;98666.78;4862603;29;20506;-75
2021/11/27 05:05:45;;;;;;;42.28;21.83;;;;;;;1.53;100.00;98679.03;4907620;29;20044;-75
2021/11/27 05:08:10;;;;;;;40.95;21.45;;;;;;;1.53;100.00;98676.44;4892198;29;20036;-75
2021/11/27 05:10:36;;;;;;;45.25;22.23;;;;;;;1.48;100.00;98668.28;4906618;29;20410;-75
2021/11/27 05:13:02;;;;;;;40.65;22.25;;;;;;;1.46;100.00;98676.16;4894368;29;20593;-74
2021/11/27 05:15:29;;;;;;;42.25;22.65;;;;;;;1.52;100.00;98685.94;4876162;29;20044;-76
2021/11/27 05:17:59;;;;;;;39.45;22.77;;;;;;;1.51;100.00;98689.47;4876406;29;20047;-75
2021/11/27 05:20:36;;;;;;;46.83;22.90;;;;;;;1.46;100.00;98678.75;4892471;29;20088;-76
2021/11/27 05:23:02;;;;;;;37.78;21.85;;;;;;;1.54;100.00;98680.63;4894035;29;20064;-74
2021/11/27 05:25:28;;;;;;;43.67;23.25;;;;;;;1.54;100.00;98690.97;4876208;29;20047;-75
2021/11/27 05:28:12;;;;;;;40.33;21.67;;;;;;;1.57;100.00;98692.47;4890378;29;20051;-74
2021/11/27 05:30:47;;;;;;;42.47;21.02;;;;;;;1.58;100.00;98699.25;4874574;29;20044;-75
2021/11/27 05:33:15;;;;;;;40.67;21.55;;;;;;;1.54;100.00;98699.56;4887359;29;20062;-74
2021/11/27 05:35:51;;;;;;;40.60;23.02;;;;;;;1.62;100.00;98701.44;4894022;29;20041;-75
2021/11/27 05:38:17;;;;;;;40.35;22.02;;;;;;;1.57;100.00;98700.22;4892632;29;20713;-75
2021/11/27 05:40:43;;;;;;;39.20;21.10;;;;;;;1.54;100.00;98696.13;4859989;29;20032;-74
2021/11/27 05:43:08;;;;;;;48.15;23.20;;;;;;;1.47;100.00;98698.47;4871990;29;20045;-74
2021/11/27 05:45:35;;;;;;;37.97;20.90;;;;;;;1.55;100.00;98701.16;4890355;29;20120;-76
2021/11/27 05:48:03;;;;;;;42.33;21.77;;;;;;;1.52;100.00;98696.25;4894105;29;20068;-75
2021/11/27 05:50:48;;;;;;;41.08;21.60;;;;;;;1.52;100.00;98705.78;4888293;29;20412;-75
2021/11/27 05:53:17;;;;;;;41.33;20.33;;;;;;;1.51;100.00;98699.81;4890502;29;20036;-75
2021/11/27 05:55:46;;;;;;;41.83;21.70;;;;;;;1.48;100.00;98705.25;4891950;29;20044;-75
2021/11/27 05:58:14;;;;;;;45.80;21.13;;;;;;;1.50;100.00;98708.50;4890598;29;20514;-75
2021/11/27 06:00:40;;;;;;;39.45;20.02;;;;;;;1.50;100.00;98716.25;4890800;29;20036;-75
2021/11/27 06:03:05;;;;;;;38.97;21.17;;;;;;;1.55;100.00;98710.69;4887255;29;20052;-75
2021/11/27 06:05:31;;;;;;;40.17;22.00;;;;;;;1.58;100.00;98725.91;4892434;29;20054;-74
2021/11/27 06:07:57;;;;;;;35.75;20.25;;;;;;;1.55;100.00;98714.09;4877316;29;20036;-75
2021/11/27 06:10:23;;;;;;;41.42;21.85;;;;;;;1.49;100.00;98716.44;4888958;29;20040;-75
2021/11/27 06:12:49;;;;;;;36.85;20.52;;;;;;;1.55;100.00;98715.88;4890544;29;20135;-75
2021/11/27 06:15:15;;;;;;;40.40;21.05;;;;;;;1.52;100.00;98724.69;4890749;29;20461;-75
2021/11/27 06:17:40;;;;;;;42.05;21.45;;;;;;;1.51;100.00;98727.44;4894418;29;20809;-75
2021/11/27 06:20:07;;;;;;;43.58;22.10;;;;;;;1.56;100.00;98725.22;4891554;29;20033;-75
2021/11/27 06:22:32;;;;;;;45.17;23.02;;;;;;;1.60;100.00;98729.19;4893451;29;20036;-74
2021/11/27 06:24:58;;;;;;;41.78;21.85;;;;;;;1.58;100.00;98727.69;4893211;29;20069;-74
2021/11/27 06:27:23;;;;;;;42.47;21.90;;;;;;;1.54;100.00;98724.56;4893936;29;20044;-74
2021/11/27 06:29:51;;;;;;;39.63;22.15;;;;;;;1.68;100.00;98738.84;4892132;29;20033;-74
2021/11/27 06:32:22;;;;;;;38.72;20.52;;;;;;;1.59;100.00;98740.47;4875685;29;20099;-74
2021/11/27 06:34:49;;;;;;;44.10;22.10;;;;;;;1.51;100.00;98736.00;4893073;29;20036;-75
2021/11/27 06:37:14;;;;;;;43.60;22.35;;;;;;;1.65;100.00;98747.66;4889498;29;20047;-75
2021/11/27 06:39:40;;;;;;;38.45;21.38;;;;;;;1.62;100.00;98741.94;4891969;29;20033;-75
2021/11/27 06:42:06;;;;;;;40.05;21.88;;;;;;;1.63;100.00;98746.19;4891154;29;20507;-75
2021/11/27 06:44:52;;;;;;;38.55;20.65;;;;;;;1.62;100.00;98752.28;4859447;29;20040;-75
2021/11/27 06:47:22;;;;;;;37.25;21.00;;;;;;;1.62;100.00;98762.63;4876105;29;20051;-76
2021/11/27 06:49:48;;;;;;;42.85;22.52;;;;;;;1.62;100.00;98763.47;4862034;29;20033;-74
2021/11/27 06:52:15;;;;;;;45.00;21.58;;;;;;;1.57;100.00;98762.25;4876499;29;20119;-75
2021/11/27 06:54:41;;;;;;;40.50;21.55;;;;;;;1.61;100.00;98768.75;4893019;29;20037;-75
2021/11/27 06:57:08;;;;;;;38.15;21.52;;;;;;;1.62;100.00;98766.06;4889766;29;20495;-75
2021/11/27 06:59:35;;;;;;;38.20;20.40;;;;;;;1.69;100.00;98771.47;4878475;29;20076;-75
2021/11/27 07:02:19;;;;;;;36.25;21.08;;;;;;;1.66;100.00;98774.34;4890667;29;20079;-75
2021/11/27 07:05:04;;;;;;;39.90;20.58;;;;;;;1.67;100.00;98783.72;4892942;29;20695;-75
2021/11/27 07:07:56;;;;;;;38.70;22.23;;;;;;;1.68;100.00;98793.13;4889384;29;20059;-75
2021/11/27 07:10:25;;;;;;;38.53;22.42;;;;;;;1.63;100.00;98784.94;4887719;29;20041;-75
2021/11/27 07:12:58;;;;;;;40.22;21.85;;;;;;;1.71;100.00;98790.22;4892885;29;20047;-75
2021/11/27 07:15:26;;;;;;;41.10;22.25;;;;;;;1.68;100.00;98793.91;4875247;29;20052;-75
2021/11/27 07:17:51;;;;;;;36.53;20.23;;;;;;;1.73;100.00;98796.06;4892784;29;20037;-75
2021/11/27 07:20:17;;;;;;;37.70;20.67;;;;;;;1.71;100.00;98795.41;4879649;29;20514;-75
2021/11/27 07:22:42;;;;;;;45.33;22.48;;;;;;;1.71;100.00;98796.25;4877211;29;20040;-75
2021/11/27 07:25:09;;;;;;;39.67;21.92;;;;;;;1.73;100.00;98802.09;4879002;29;20036;-75
2021/11/27 07:28:01;;;;;;;37.13;22.33;;;;;;;1.75;100.00;98799.34;4875129;29;20476;-75
2021/11/27 07:30:28;;;;;;;37.95;22.00;;;;;;;1.80;100.00;98801.53;4889588;29;20047;-74
2021/11/27 07:32:55;;;;;;;39.53;21.48;;;;;;;1.66;100.00;98793.25;4877515;29;20578;-75
2021/11/27 07:35:21;;;;;;;37.53;20.77;;;;;;;1.68;100.00;98793.13;4870453;29;20052;-74
2021/11/27 07:37:46;;;;;;;42.30;22.67;;;;;;;1.67;100.00;98802.63;4861888;29;20476;-75
2021/11/27 07:40:12;;;;;;;44.40;21.83;;;;;;;1.72;100.00;98805.63;4890415;29;20080;-75
2021/11/27 07:42:38;;;;;;;41.88;22.15;;;;;;;1.67;100.00;98806.97;4894819;29;20044;-74
2021/11/27 07:45:34;;;;;;;42.80;22.67;;;;;;;1.72;100.00;98809.97;4890614;29;20108;-75
2021/11/27 07:48:20;;;;;;;46.25;22.42;;;;;;;1.71;100.00;98806.59;4888029;29;20041;-74
2021/11/27 07:51:06;;;;;;;41.55;23.00;;;;;;;1.83;100.00;98809.81;4884279;29;20415;-75
2021/11/27 07:53:37;;;;;;;48.00;23.02;;;;;;;1.76;100.00;98806.16;4880371;29;20036;-76
2021/11/27 07:56:06;;;;;;;41.92;22.10;;;;;;;1.79;100.00;98807.63;4890925;29;20040;-75
2021/11/27 07:58:31;;;;;;;37.53;20.58;;;;;;;1.83;100.00;98811.56;4889921;29;20064;-75
2021/11/27 08:00:57;;;;;;;41.78;21.67;;;;;;;1.85;100.00;98815.69;4877131;29;20079;-75
2021/11/27 08:03:23;;;;;;;36.45;20.88;;;;;;;1.86;100.00;98816.47;4876759;29;20048;-75
2021/11/27 08:05:48;;;;;;;42.85;21.67;;;;;;;1.89;100.00;98823.97;4877564;29;20044;-75
2021/11/27 08:08:15;;;;;;;40.70;20.75;;;;;;;1.91;100.00;98822.06;4876553;29;20032;-72
2021/11/27 08:10:41;;;;;;;42.53;22.25;;;;;;;1.90;100.00;98820.41;4871126;29;20040;-75
2021/11/27 08:13:07;;;;;;;37.22;21.00;;;;;;;1.99;100.00;98829.94;4890925;29;20578;-74
2021/11/27 08:15:32;;;;;;;37.30;20.55;;;;;;;2.02;100.00;98831.44;4890695;29;20033;-74
2021/11/27 08:17:58;;;;;;;39.45;21.27;;;;;;;2.08;100.00;98842.03;4891321;29;20809;-75
2021/11/27 08:20:24;;;;;;;39.55;21.25;;;;;;;2.06;100.00;98840.56;4888874;29;20111;-75
2021/11/27 08:22:49;;;;;;;39.85;21.67;;;;;;;2.07;100.00;98840.41;4891076;29;20044;-76
2021/11/27 08:25:15;;;;;;;40.38;20.90;;;;;;;2.13;100.00;98839.06;4870320;29;20065;-75
2021/11/27 08:27:41;;;;;;;37.40;20.58;;;;;;;2.16;100.00;98836.16;4881096;29;20502;-74
2021/11/27 08:30:09;;;;;;;41.83;20.65;;;;;;;2.21;100.00;98835.75;4878845;29;20100;-75
2021/11/27 08:32:35;;;;;;;35.85;19.15;;;;;;;2.24;100.00;98849.25;4893181;29;20040;-74
2021/11/27 08:35:02;;;;;;;37.97;19.95;;;;;;;2.23;100.00;98842.41;4893571;29;20053;-74
2021/11/27 08:37:31;;;;;;;37.85;20.73;;;;;;;2.28;100.00;98848.00;4891636;29;20067;-74
2021/11/27 08:39:58;;;;;;;41.22;21.20;;;;;;;2.28;100.00;98845.41;4894444;29;20033;-74
2021/11/27 08:42:24;;;;;;;41.13;21.40;;;;;;;2.37;100.00;98854.09;4878629;29;20403;-75
2021/11/27 08:44:51;;;;;;;33.65;19.58;;;;;;;2.33;100.00;98845.78;4880099;29;20119;-75
2021/11/27 08:47:18;;;;;;;37.25;19.38;;;;;;;2.33;100.00;98850.97;4865942;29;20132;-75
2021/11/27 08:49:44;;;;;;;39.63;19.25;;;;;;;2.31;100.00;98850.28;4879343;29;20537;-75
2021/11/27 08:52:10;;;;;;;36.92;19.95;;;;;;;2.28;100.00;98847.16;4881119;29;20040;-75
2021/11/27 08:54:37;;;;;;;34.55;20.50;;;;;;;2.27;100.00;98853.31;4893298;29;20483;-75
2021/11/27 08:57:02;;;;;;;38.10;21.08;;;;;;;2.18;100.00;98844.59;4863514;29;20053;-74
2021/11/27 08:59:29;;;;;;;35.03;19.70;;;;;;;2.24;100.00;98854.41;4894413;29;20208;-76
2021/11/27 09:01:55;;;;;;;37.38;20.45;;;;;;;2.20;100.00;98849.66;4893627;29;20112;-74
2021/11/27 09:04:21;;;;;;;40.92;20.75;;;;;;;2.16;100.00;98854.28;4879988;29;20036;-74
2021/11/27 09:06:47;;;;;;;41.97;20.75;;;;;;;2.20;100.00;98860.78;4881522;29;20124;-75
2021/11/27 09:09:12;;;;;;;42.13;21.63;;;;;;;2.22;100.00;98860.66;4893009;29;20625;-75
2021/11/27 09:11:39;;;;;;;37.47;20.77;;;;;;;2.17;100.00;98868.84;4869933;29;20043;-75
2021/11/27 09:14:07;;;;;;;36.53;20.45;;;;;;;2.18;100.00;98875.66;4894198;29;20070;-76
2021/11/27 09:16:34;;;;;;;34.05;19.90;;;;;;;2.14;100.00;98872.50;4890740;29;20025;-75
2021/11/27 09:19:02;;;;;;;36.38;19.90;;;;;;;2.19;100.00;98871.31;4891971;29;20048;-73
2021/11/27 09:21:28;;;;;;;39.08;19.83;;;;;;;2.20;100.00;98875.50;4863045;29;20047;-74
2021/11/27 09:23:53;;;;;;;36.55;19.90;;;;;;;2.22;100.00;98871.00;4889343;29;20037;-75
2021/11/27 09:26:19;;;;;;;37.65;20.33;;;;;;;2.32;100.00;98877.00;4893140;29;20040;-74
2021/11/27 09:28:44;;;;;;;39.08;20.05;;;;;;;2.27;100.00;98880.00;4894492;29;20547;-75
2021/11/27 09:31:10;;;;;;;37.03;19.02;;;;;;;2.28;100.00;98886.81;4877606;29;20469;-74
2021/11/27 09:33:36;;;;;;;39.05;19.63;;;;;;;2.23;100.00;98886.41;4878215;29;20037;-74
2021/11/27 09:36:05;;;;;;;40.80;19.83;;;;;;;2.22;100.00;98889.13;4893699;29;20036;-71
2021/11/27 09:38:32;;;;;;;39.05;20.95;;;;;;;2.32;100.00;98895.91;4892597;29;20051;-74
2021/11/27 09:41:22;;;;;;;36.30;20.52;;;;;;;2.32;100.00;98897.69;4878372;29;20092;-74
2021/11/27 09:43:49;;;;;;;43.03;20.98;;;;;;;2.26;100.00;98896.47;4891163;29;20734;-74
2021/11/27 09:46:19;;;;;;;35.15;20.88;;;;;;;2.29;100.00;98905.72;4905414;29;20037;-75
2021/11/27 09:48:48;;;;;;;33.78;18.50;;;;;;;2.32;100.00;98895.91;4878383;29;20056;-74
2021/11/27 09:51:15;;;;;;;36.53;19.25;;;;;;;2.31;100.00;98896.84;4890752;29;20041;-74
2021/11/27 09:53:41;;;;;;;38.50;18.95;;;;;;;2.35;100.00;98907.75;4874986;29;20072;-75
2021/11/27 09:56:08;;;;;;;37.63;18.88;;;;;;;2.37;100.00;98897.28;4886628;29;20037;-74
2021/11/27 09:58:34;;;;;;;34.70;18.75;;;;;;;2.34;100.00;98903.56;4893669;29;20968;-74
2021/11/27 10:01:05;;;;;;;39.78;19.45;;;;;;;2.32;100.00;98901.09;4908391;29;20028;-74
2021/11/27 10:03:31;;;;;;;40.28;19.30;;;;;;;2.37;100.00;98905.03;4891588;29;20117;-74
2021/11/27 10:05:58;;;;;;;41.47;20.35;;;;;;;2.40;100.00;98909.94;4879033;29;20511;-74
2021/11/27 10:08:24;;;;;;;33.88;18.20;;;;;;;2.40;100.00;98900.41;4889018;29;20049;-76
2021/11/27 10:10:50;;;;;;;32.17;18.50;;;;;;;2.43;100.00;98907.06;4877717;29;20130;-76
2021/11/27 10:13:23;;;;;;;38.10;20.25;;;;;;;2.41;100.00;98888.25;4877346;29;20044;-76
2021/11/27 10:15:51;;;;;;;35.50;20.45;;;;;;;2.40;100.00;98904.75;4875451;29;20067;-74
2021/11/27 10:18:19;;;;;;;34.55;19.55;;;;;;;2.36;100.00;98901.63;4892423;29;20029;-74
2021/11/27 10:20:45;;;;;;;35.03;18.52;;;;;;;2.40;100.00;98907.34;4878256;29;20032;-73
2021/11/27 10:23:11;;;;;;;40.50;18.50;;;;;;;2.37;100.00;98910.22;4892627;29;20088;-74
2021/11/27 10:25:40;;;;;;;35.47;18.70;;;;;;;2.36;100.00;98916.34;4877501;29;20044;-74
2021/11/27 10:28:09;;;;;;;37.53;18.40;;;;;;;2.32;100.00;98921.78;4891755;29;20044;-74
2021/11/27 10:30:46;;;;;;;36.30;18.95;;;;;;;2.23;100.00;98907.09;4891191;29;20518;-75
2021/11/27 10:33:12;;;;;;;34.78;19.17;;;;;;;2.22;100.00;98910.63;4890021;29;20043;-74
2021/11/27 10:35:54;;;;;;;38.88;19.98;;;;;;;2.26;100.00;98913.75;4892906;29;20036;-74
2021/11/27 10:38:20;;;;;;;35.85;19.60;;;;;;;2.26;100.00;98913.75;4863940;29;20044;-74
2021/11/27 10:40:56;;;;;;;40.65;20.10;;;;;;;2.21;100.00;98910.78;4891139;29;20123;-73
2021/11/27 10:43:23;;;;;;;35.67;18.83;;;;;;;2.21;100.00;98914.19;4890954;29;20127;-74
2021/11/27 10:45:49;;;;;;;37.53;18.65;;;;;;;2.19;100.00;98916.09;4892500;29;20052;-74
2021/11/27 10:48:26;;;;;;;37.47;19.08;;;;;;;2.24;100.00;98918.25;4891144;29;20157;-74
2021/11/27 10:50:59;;;;;;;37.90;20.27;;;;;;;2.21;100.00;98919.34;4876606;29;20067;-74
2021/11/27 10:53:26;;;;;;;36.40;19.92;;;;;;;2.25;100.00;98915.53;4874196;29;20189;-73
2021/11/27 10:55:52;;;;;;;38.00;19.45;;;;;;;2.16;100.00;98918.13;4886714;29;20495;-74
2021/11/27 10:58:19;;;;;;;35.38;20.05;;;;;;;2.17;100.00;98915.41;4874438;29;20044;-74
2021/11/27 11:00:48;;;;;;;36.58;19.98;;;;;;;2.20;100.00;98916.91;4875526;29;20037;-74
2021/11/27 11:03:31;;;;;;;42.72;19.98;;;;;;;2.21;100.00;98915.97;4890908;29;20064;-74
2021/11/27 11:06:00;;;;;;;41.67;20.55;;;;;;;2.17;100.00;98912.81;4864487;29;20044;-74
2021/11/27 11:08:37;;;;;;;36.65;19.73;;;;;;;2.19;100.00;98916.09;4885685;29;20063;-75
2021/11/27 11:11:28;;;;;;;39.72;19.17;;;;;;;2.12;100.00;98920.97;4890634;29;20043;-74
2021/11/27 11:13:59;;;;;;;33.17;19.10;;;;;;;2.03;100.00;98926.97;4885231;29;20040;-74
2021/11/27 11:16:33;;;;;;;39.33;19.50;;;;;;;2.04;100.00;98931.22;4857729;29;20180;-74
2021/11/27 11:19:20;;;;;;;35.42;19.90;;;;;;;1.97;100.00;98931.88;4890390;29;20045;-74
2021/11/27 11:22:12;;;;;;;37.35;19.63;;;;;;;2.00;100.00;98932.44;4891329;29;20124;-75